createdAt,value
2018-06-17T00:02:09.218Z,92.20
2018-06-17T00:06:53.725Z,92.40
2018-06-17T00:11:38.130Z,92.40
2018-06-17T00:16:22.581Z,92.50
2018-06-17T00:21:06.963Z,92.50
2018-06-17T00:25:51.582Z,92.80
2018-06-17T00:30:36.043Z,93.10
2018-06-17T00:35:20.482Z,93.30
2018-06-17T00:40:04.861Z,93.40
2018-06-17T00:44:49.219Z,93.40
2018-06-17T00:49:33.629Z,93.50
2018-06-17T00:54:18.054Z,93.40
2018-06-17T00:59:02.511Z,93.80
2018-06-17T01:03:46.887Z,93.90
2018-06-17T01:08:31.215Z,94.40
2018-06-17T01:13:15.794Z,94.50
2018-06-17T01:18:00.220Z,94.60
2018-06-17T01:22:44.526Z,94.80
2018-06-17T01:27:29.045Z,95.50
2018-06-17T01:32:13.572Z,95.70
2018-06-17T01:36:57.983Z,96.10
2018-06-17T01:41:42.331Z,96.50
2018-06-17T01:46:26.653Z,96.30
2018-06-17T01:51:11.233Z,96.40
2018-06-17T01:55:55.623Z,96.70
2018-06-17T02:00:40.001Z,96.50
2018-06-17T02:05:29.541Z,96.50
2018-06-17T02:10:19.083Z,96.30
2018-06-17T02:15:03.611Z,96.30
2018-06-17T02:19:47.996Z,96.40
2018-06-17T02:24:32.328Z,96.60
2018-06-17T02:29:16.750Z,96.40
2018-06-17T02:34:01.245Z,96.70
2018-06-17T02:38:45.824Z,96.50
2018-06-17T02:43:30.327Z,96.60
2018-06-17T02:48:19.895Z,96.80
2018-06-17T02:53:09.531Z,96.70
2018-06-17T02:57:54.071Z,97.00
2018-06-17T03:02:38.409Z,96.90
2018-06-17T03:07:22.808Z,97.00
2018-06-17T03:12:07.375Z,97.50
2018-06-17T03:16:52.216Z,97.40
2018-06-17T03:21:36.594Z,97.50
2018-06-17T03:31:15.498Z,96.70
2018-06-17T03:36:05.262Z,96.60
2018-06-17T03:40:49.593Z,96.50
2018-06-17T03:45:34.050Z,96.70
2018-06-17T03:50:18.475Z,96.70
2018-06-17T03:55:02.848Z,96.70
2018-06-17T03:59:47.311Z,96.70
2018-06-17T04:04:36.004Z,97.90
2018-06-17T04:09:20.411Z,97.00
2018-06-17T04:14:04.817Z,98.10
2018-06-17T04:18:49.168Z,98.90
2018-06-17T04:23:33.564Z,99.10
2018-06-17T04:28:18.203Z,98.30
2018-06-17T04:33:02.646Z,99.90
2018-06-17T04:37:46.993Z,99.90
2018-06-17T04:42:31.503Z,99.90
2018-06-17T04:47:16.317Z,99.90
2018-06-17T04:52:00.923Z,99.90
2018-06-17T04:56:45.334Z,97.60
2018-06-17T05:01:29.821Z,98.20
2018-06-17T05:06:14.134Z,97.90
2018-06-17T05:10:58.630Z,96.50
2018-06-17T05:15:43.065Z,94.50
2018-06-17T05:20:27.447Z,95.50
2018-06-17T05:25:11.806Z,93.40
2018-06-17T05:29:56.214Z,93.90
2018-06-17T05:34:42.090Z,94.60
2018-06-17T05:39:26.503Z,93.80
2018-06-17T05:44:10.998Z,95.30
2018-06-17T05:48:55.959Z,95.70
2018-06-17T05:53:40.417Z,94.00
2018-06-17T05:58:24.843Z,92.40
2018-06-17T06:03:09.259Z,91.20
2018-06-17T06:07:53.760Z,89.60
2018-06-17T06:12:38.203Z,88.20
2018-06-17T06:17:22.623Z,86.30
2018-06-17T06:22:07.081Z,90.30
2018-06-17T06:26:51.767Z,87.20
2018-06-17T06:31:36.155Z,85.70
2018-06-17T06:36:20.454Z,84.40
2018-06-17T06:41:04.968Z,84.30
2018-06-17T06:45:49.458Z,84.20
2018-06-17T06:50:35.006Z,81.70
2018-06-17T06:55:19.615Z,79.30
2018-06-17T07:00:04.054Z,80.90
2018-06-17T07:04:59.473Z,79.90
2018-06-17T07:09:55.220Z,81.00
2018-06-17T07:14:39.682Z,78.60
2018-06-17T07:19:24.179Z,74.70
2018-06-17T07:24:10.699Z,75.00
2018-06-17T07:29:06.295Z,75.40
2018-06-17T07:33:50.458Z,77.90
2018-06-17T07:38:34.608Z,74.80
2018-06-17T07:43:18.754Z,73.10
2018-06-17T07:48:03.853Z,74.00
2018-06-17T07:52:59.185Z,72.60
2018-06-17T07:57:43.374Z,71.70
2018-06-17T08:02:27.553Z,71.30
2018-06-17T08:07:11.694Z,72.00
2018-06-17T08:11:56.837Z,70.80
2018-06-17T08:16:41.030Z,69.60
2018-06-17T08:21:25.810Z,69.60
2018-06-17T08:26:09.987Z,71.20
2018-06-17T08:30:54.478Z,68.60
2018-06-17T08:35:38.629Z,65.10
2018-06-17T08:40:22.848Z,67.50
2018-06-17T08:45:07.011Z,65.10
2018-06-17T08:49:52.153Z,62.90
2018-06-17T08:54:43.065Z,62.90
2018-06-17T08:59:27.270Z,62.40
2018-06-17T09:04:11.729Z,62.10
2018-06-17T09:08:56.508Z,59.20
2018-06-17T09:13:40.665Z,61.80
2018-06-17T09:18:25.151Z,59.70
2018-06-17T09:23:09.347Z,60.20
2018-06-17T09:27:53.509Z,63.70
2018-06-17T09:32:37.762Z,61.70
2018-06-17T09:37:22.046Z,60.10
2018-06-17T09:42:06.281Z,61.00
2018-06-17T09:46:50.436Z,59.10
2018-06-17T09:51:34.694Z,59.00
2018-06-17T09:56:18.989Z,57.70
2018-06-17T10:01:03.126Z,61.30
2018-06-17T10:05:47.262Z,65.50
2018-06-17T10:10:44.620Z,64.40
2018-06-17T10:15:29.007Z,66.20
2018-06-17T10:20:13.362Z,66.40
2018-06-17T10:24:57.703Z,65.40
2018-06-17T10:29:42.111Z,60.20
2018-06-17T10:34:26.612Z,62.20
2018-06-17T10:39:11.070Z,59.60
2018-06-17T10:43:55.439Z,58.70
2018-06-17T10:48:39.904Z,57.10
2018-06-17T10:53:24.374Z,59.40
2018-06-17T10:58:08.797Z,61.70
2018-06-17T11:02:53.247Z,61.80
2018-06-17T11:07:37.858Z,64.80
2018-06-17T11:12:22.443Z,63.90
2018-06-17T11:17:06.874Z,61.00
2018-06-17T11:21:51.356Z,60.40
2018-06-17T11:26:36.835Z,55.70
2018-06-17T11:31:21.336Z,57.70
2018-06-17T11:36:05.804Z,54.60
2018-06-17T11:40:50.604Z,53.80
2018-06-17T11:45:35.123Z,54.90
2018-06-17T11:50:19.794Z,55.50
2018-06-17T11:55:10.093Z,54.00
2018-06-17T11:59:56.981Z,55.70
2018-06-17T12:04:41.626Z,59.50
2018-06-17T12:09:26.333Z,62.20
2018-06-17T12:14:10.988Z,60.90
2018-06-17T12:18:55.633Z,59.40
2018-06-17T12:23:40.226Z,62.50
2018-06-17T12:28:24.752Z,61.50
2018-06-17T12:33:09.382Z,62.80
2018-06-17T12:37:53.904Z,60.70
2018-06-17T12:42:38.341Z,60.80
2018-06-17T12:47:23.044Z,57.70
2018-06-17T12:52:07.619Z,57.00
2018-06-17T12:56:52.200Z,57.60
2018-06-17T13:01:36.965Z,54.40
2018-06-17T13:06:22.007Z,56.80
2018-06-17T13:11:06.641Z,58.00
2018-06-17T13:15:51.256Z,62.30
2018-06-17T13:20:35.714Z,67.10
2018-06-17T13:25:21.008Z,70.40
2018-06-17T13:35:11.392Z,87.80
2018-06-17T13:40:01.338Z,93.90
2018-06-17T13:44:47.964Z,98.90
2018-06-17T13:49:32.393Z,99.90
2018-06-17T13:54:17.092Z,99.90
2018-06-17T13:59:01.724Z,99.90
2018-06-17T14:03:46.239Z,99.90
2018-06-17T14:08:30.809Z,99.90
2018-06-17T14:13:15.583Z,99.90
2018-06-17T14:18:00.442Z,99.60
2018-06-17T14:22:45.097Z,99.70
2018-06-17T14:27:29.959Z,99.90
2018-06-17T14:32:14.672Z,99.90
2018-06-17T14:36:59.896Z,99.90
2018-06-17T14:41:47.583Z,99.90
2018-06-17T14:46:37.612Z,99.90
2018-06-17T14:51:28.100Z,99.90
2018-06-17T14:56:13.780Z,99.90
2018-06-17T15:00:58.170Z,99.90
2018-06-17T15:05:42.759Z,99.90
2018-06-17T15:10:27.405Z,99.90
2018-06-17T15:15:11.938Z,99.90
2018-06-17T15:19:56.673Z,99.90
2018-06-17T15:24:41.244Z,99.90
2018-06-17T15:29:26.100Z,99.90
2018-06-17T15:34:15.971Z,99.90
2018-06-17T15:39:04.689Z,99.90
2018-06-17T15:43:49.237Z,99.90
2018-06-17T15:48:33.672Z,99.90
2018-06-17T15:53:18.282Z,99.90
2018-06-17T15:58:02.729Z,99.90
2018-06-17T16:02:47.110Z,99.90
2018-06-17T16:07:32.357Z,99.90
2018-06-17T16:12:21.951Z,99.90
2018-06-17T16:17:11.731Z,99.90
2018-06-17T16:21:56.151Z,99.90
2018-06-17T16:26:40.683Z,99.90
2018-06-17T16:31:25.234Z,99.90
2018-06-17T16:36:09.701Z,99.90
2018-06-17T16:40:54.141Z,99.90
2018-06-17T16:45:38.763Z,99.90
2018-06-17T16:50:23.314Z,99.90
2018-06-17T16:55:12.954Z,99.90
2018-06-17T17:00:04.504Z,99.90
2018-06-17T17:04:49.122Z,99.90
2018-06-17T17:09:33.940Z,99.90
2018-06-17T17:14:18.254Z,99.90
2018-06-17T17:19:02.767Z,99.90
2018-06-17T17:23:47.253Z,99.90
2018-06-17T17:28:31.761Z,99.90
2018-06-17T17:33:21.436Z,99.90
2018-06-17T17:38:11.384Z,99.90
2018-06-17T17:42:55.815Z,99.90
2018-06-17T17:47:40.335Z,99.90
2018-06-17T17:52:24.880Z,99.90
2018-06-17T17:57:09.817Z,99.90
2018-06-17T18:01:54.680Z,99.90
2018-06-17T18:06:51.476Z,99.90
2018-06-17T18:11:37.246Z,99.90
2018-06-17T18:16:21.944Z,99.90
2018-06-17T18:21:07.172Z,99.90
2018-06-17T18:25:57.007Z,99.90
2018-06-17T18:30:46.941Z,99.90
2018-06-17T18:35:36.702Z,99.90
2018-06-17T18:40:21.227Z,99.90
2018-06-17T18:45:05.990Z,99.90
2018-06-17T18:49:50.539Z,99.90
2018-06-17T18:54:35.271Z,99.90
2018-06-17T18:59:19.911Z,99.90
2018-06-17T19:04:04.349Z,99.90
2018-06-17T19:08:54.146Z,99.90
2018-06-17T19:13:43.957Z,99.90
2018-06-17T19:18:28.906Z,99.90
2018-06-17T19:23:13.477Z,99.90
2018-06-17T19:27:58.161Z,99.90
2018-06-17T19:32:42.792Z,99.90
2018-06-17T19:37:28.454Z,99.90
2018-06-17T19:42:13.261Z,99.90
2018-06-17T19:46:58.911Z,99.90
2018-06-17T19:51:49.638Z,99.90
2018-06-17T19:58:43.184Z,99.90
2018-06-17T20:04:00.016Z,99.90
2018-06-17T20:08:44.925Z,99.90
2018-06-17T20:13:31.140Z,99.90
2018-06-17T20:18:24.601Z,99.90
2018-06-17T20:23:09.676Z,99.90
2018-06-17T20:27:54.314Z,99.90
2018-06-17T20:32:44.145Z,99.90
2018-06-17T20:37:34.096Z,99.90
2018-06-17T20:42:24.001Z,99.90
2018-06-17T20:47:08.912Z,99.90
2018-06-17T20:51:53.591Z,99.90
2018-06-17T20:56:38.759Z,99.90
2018-06-17T21:01:23.597Z,99.90
2018-06-17T21:06:08.337Z,99.90
2018-06-17T21:10:52.861Z,99.90
2018-06-17T21:15:37.711Z,99.90
2018-06-17T21:20:27.631Z,99.90
2018-06-17T21:25:17.624Z,99.90
2018-06-17T21:30:02.178Z,99.90
2018-06-17T21:34:46.868Z,99.90
2018-06-17T21:39:31.254Z,99.90
2018-06-17T21:44:15.651Z,99.90
2018-06-17T21:49:00.136Z,99.90
2018-06-17T21:53:44.702Z,99.90
2018-06-17T21:58:34.391Z,99.90
2018-06-17T22:03:18.903Z,99.90
2018-06-17T22:08:08.600Z,99.90
2018-06-17T22:12:59.114Z,99.90
2018-06-17T22:17:48.707Z,99.90
2018-06-17T22:22:33.214Z,99.90
2018-06-17T22:27:17.834Z,99.90
2018-06-17T22:32:02.251Z,99.90
2018-06-17T22:36:47.038Z,99.90
2018-06-17T22:41:31.435Z,99.90
2018-06-17T22:46:15.910Z,99.90
2018-06-17T22:51:00.335Z,99.90
2018-06-17T22:55:44.914Z,99.90
2018-06-17T23:02:36.793Z,99.90
2018-06-17T23:07:26.704Z,99.90
2018-06-17T23:12:11.064Z,99.90
2018-06-17T23:16:56.534Z,99.90
2018-06-17T23:21:42.072Z,99.90
2018-06-17T23:26:26.732Z,99.90
2018-06-17T23:31:11.264Z,99.90
2018-06-17T23:35:55.693Z,99.90
2018-06-17T23:40:40.224Z,99.90
2018-06-17T23:45:24.818Z,99.90
2018-06-17T23:50:14.590Z,99.90
2018-06-17T23:55:04.158Z,99.90
2018-06-17T23:59:48.691Z,99.90
